sensor_id;sensor_type;location;lat;lon;timestamp;P1;durP1;ratioP1;P2;durP2;ratioP2
27408;SDS011;20413;50.782;7.152;2022-12-07T00:01:07;40.97;;;20.25;;
27408;SDS011;20413;50.782;7.152;2022-12-07T00:03:44;45.67;;;21.50;;
27408;SDS011;20413;50.782;7.152;2022-12-07T00:06:11;42.63;;;21.63;;
27408;SDS011;20413;50.782;7.152;2022-12-07T00:08:38;51.38;;;22.83;;
27408;SDS011;20413;50.782;7.152;2022-12-07T00:11:08;49.28;;;23.00;;
27408;SDS011;20413;50.782;7.152;2022-12-07T00:13:42;42.78;;;23.10;;
27408;SDS011;20413;50.782;7.152;2022-12-07T00:16:10;47.05;;;23.38;;
27408;SDS011;20413;50.782;7.152;2022-12-07T00:18:40;49.88;;;23.55;;
27408;SDS011;20413;50.782;7.152;2022-12-07T00:21:08;48.42;;;23.77;;
27408;SDS011;20413;50.782;7.152;2022-12-07T00:23:36;44.03;;;23.20;;
27408;SDS011;20413;50.782;7.152;2022-12-07T00:28:38;46.63;;;24.20;;
27408;SDS011;20413;50.782;7.152;2022-12-07T00:31:05;48.10;;;23.45;;
27408;SDS011;20413;50.782;7.152;2022-12-07T00:33:33;46.13;;;23.33;;
27408;SDS011;20413;50.782;7.152;2022-12-07T00:35:59;42.50;;;24.00;;
27408;SDS011;20413;50.782;7.152;2022-12-07T00:38:27;53.00;;;24.30;;
27408;SDS011;20413;50.782;7.152;2022-12-07T00:41:02;42.95;;;22.92;;
27408;SDS011;20413;50.782;7.152;2022-12-07T00:43:32;47.72;;;24.67;;
27408;SDS011;20413;50.782;7.152;2022-12-07T00:45:58;48.92;;;24.75;;
27408;SDS011;20413;50.782;7.152;2022-12-07T00:48:24;53.35;;;24.83;;
27408;SDS011;20413;50.782;7.152;2022-12-07T00:50:50;49.67;;;24.42;;
27408;SDS011;20413;50.782;7.152;2022-12-07T00:53:16;52.58;;;25.25;;
27408;SDS011;20413;50.782;7.152;2022-12-07T00:55:42;47.88;;;26.00;;
27408;SDS011;20413;50.782;7.152;2022-12-07T00:58:08;48.92;;;25.98;;
27408;SDS011;20413;50.782;7.152;2022-12-07T01:00:35;46.15;;;25.45;;
27408;SDS011;20413;50.782;7.152;2022-12-07T01:03:03;48.13;;;26.08;;
27408;SDS011;20413;50.782;7.152;2022-12-07T01:05:29;51.00;;;25.15;;
27408;SDS011;20413;50.782;7.152;2022-12-07T01:07:54;52.80;;;25.65;;
27408;SDS011;20413;50.782;7.152;2022-12-07T01:10:20;45.78;;;25.10;;
27408;SDS011;20413;50.782;7.152;2022-12-07T01:12:45;58.50;;;27.33;;
27408;SDS011;20413;50.782;7.152;2022-12-07T01:15:11;45.85;;;24.35;;
27408;SDS011;20413;50.782;7.152;2022-12-07T01:17:37;47.85;;;25.48;;
27408;SDS011;20413;50.782;7.152;2022-12-07T01:20:02;49.20;;;26.27;;
27408;SDS011;20413;50.782;7.152;2022-12-07T01:22:28;49.10;;;26.25;;
27408;SDS011;20413;50.782;7.152;2022-12-07T01:24:54;49.28;;;26.30;;
27408;SDS011;20413;50.782;7.152;2022-12-07T01:27:19;47.90;;;26.88;;
27408;SDS011;20413;50.782;7.152;2022-12-07T01:29:45;47.67;;;25.77;;
27408;SDS011;20413;50.782;7.152;2022-12-07T01:32:11;45.28;;;24.88;;
27408;SDS011;20413;50.782;7.152;2022-12-07T01:34:37;46.15;;;25.85;;
27408;SDS011;20413;50.782;7.152;2022-12-07T01:37:02;46.00;;;25.33;;
27408;SDS011;20413;50.782;7.152;2022-12-07T01:39:28;52.65;;;26.02;;
27408;SDS011;20413;50.782;7.152;2022-12-07T01:41:54;45.85;;;26.52;;
27408;SDS011;20413;50.782;7.152;2022-12-07T01:44:21;46.67;;;26.33;;
27408;SDS011;20413;50.782;7.152;2022-12-07T01:46:56;52.22;;;27.67;;
27408;SDS011;20413;50.782;7.152;2022-12-07T01:54:45;45.13;;;25.38;;
27408;SDS011;20413;50.782;7.152;2022-12-07T01:57:14;49.25;;;27.95;;
27408;SDS011;20413;50.782;7.152;2022-12-07T01:59:42;50.90;;;28.27;;
27408;SDS011;20413;50.782;7.152;2022-12-07T02:02:20;46.55;;;26.13;;
27408;SDS011;20413;50.782;7.152;2022-12-07T02:04:51;45.13;;;25.75;;
27408;SDS011;20413;50.782;7.152;2022-12-07T02:07:18;51.70;;;27.67;;
27408;SDS011;20413;50.782;7.152;2022-12-07T02:09:45;46.70;;;26.48;;
27408;SDS011;20413;50.782;7.152;2022-12-07T02:12:11;47.33;;;25.95;;
27408;SDS011;20413;50.782;7.152;2022-12-07T02:14:36;48.10;;;25.65;;
27408;SDS011;20413;50.782;7.152;2022-12-07T02:25:29;54.80;;;28.00;;
27408;SDS011;20413;50.782;7.152;2022-12-07T02:30:59;52.05;;;27.25;;
27408;SDS011;20413;50.782;7.152;2022-12-07T02:33:32;54.08;;;27.38;;
27408;SDS011;20413;50.782;7.152;2022-12-07T02:36:06;53.75;;;27.67;;
27408;SDS011;20413;50.782;7.152;2022-12-07T02:38:38;50.90;;;27.67;;
27408;SDS011;20413;50.782;7.152;2022-12-07T02:41:12;46.10;;;26.23;;
27408;SDS011;20413;50.782;7.152;2022-12-07T02:43:45;52.15;;;28.33;;
27408;SDS011;20413;50.782;7.152;2022-12-07T02:46:16;48.78;;;26.88;;
27408;SDS011;20413;50.782;7.152;2022-12-07T02:48:45;52.72;;;27.08;;
27408;SDS011;20413;50.782;7.152;2022-12-07T02:51:12;52.47;;;27.73;;
27408;SDS011;20413;50.782;7.152;2022-12-07T02:53:39;53.00;;;28.13;;
27408;SDS011;20413;50.782;7.152;2022-12-07T02:56:26;52.95;;;28.33;;
27408;SDS011;20413;50.782;7.152;2022-12-07T03:07:00;47.97;;;26.30;;
27408;SDS011;20413;50.782;7.152;2022-12-07T03:09:42;47.83;;;26.73;;
27408;SDS011;20413;50.782;7.152;2022-12-07T03:12:24;57.67;;;29.13;;
27408;SDS011;20413;50.782;7.152;2022-12-07T03:15:10;55.85;;;27.88;;
27408;SDS011;20413;50.782;7.152;2022-12-07T03:17:40;47.70;;;26.98;;
27408;SDS011;20413;50.782;7.152;2022-12-07T03:20:09;50.55;;;26.95;;
27408;SDS011;20413;50.782;7.152;2022-12-07T03:22:38;53.92;;;26.92;;
27408;SDS011;20413;50.782;7.152;2022-12-07T03:25:09;50.42;;;26.02;;
27408;SDS011;20413;50.782;7.152;2022-12-07T03:27:42;53.40;;;26.77;;
27408;SDS011;20413;50.782;7.152;2022-12-07T03:30:20;48.42;;;25.63;;
27408;SDS011;20413;50.782;7.152;2022-12-07T03:35:52;50.50;;;25.65;;
27408;SDS011;20413;50.782;7.152;2022-12-07T03:38:28;50.08;;;26.73;;
27408;SDS011;20413;50.782;7.152;2022-12-07T03:43:27;40.50;;;23.42;;
27408;SDS011;20413;50.782;7.152;2022-12-07T03:48:42;34.65;;;19.15;;
27408;SDS011;20413;50.782;7.152;2022-12-07T03:51:21;45.88;;;24.27;;
27408;SDS011;20413;50.782;7.152;2022-12-07T03:53:52;46.80;;;25.00;;
27408;SDS011;20413;50.782;7.152;2022-12-07T03:56:19;54.97;;;28.25;;
27408;SDS011;20413;50.782;7.152;2022-12-07T03:58:46;44.53;;;25.17;;
27408;SDS011;20413;50.782;7.152;2022-12-07T04:01:13;43.38;;;25.70;;
27408;SDS011;20413;50.782;7.152;2022-12-07T04:03:38;46.53;;;25.55;;
27408;SDS011;20413;50.782;7.152;2022-12-07T04:06:04;43.92;;;24.45;;
27408;SDS011;20413;50.782;7.152;2022-12-07T04:08:30;49.05;;;25.83;;
27408;SDS011;20413;50.782;7.152;2022-12-07T04:10:56;43.78;;;25.08;;
27408;SDS011;20413;50.782;7.152;2022-12-07T04:13:21;44.72;;;25.63;;
27408;SDS011;20413;50.782;7.152;2022-12-07T04:15:47;43.17;;;24.63;;
27408;SDS011;20413;50.782;7.152;2022-12-07T04:18:12;52.13;;;25.67;;
27408;SDS011;20413;50.782;7.152;2022-12-07T04:20:38;48.45;;;25.25;;
27408;SDS011;20413;50.782;7.152;2022-12-07T04:23:04;45.03;;;24.75;;
27408;SDS011;20413;50.782;7.152;2022-12-07T04:25:29;46.63;;;26.73;;
27408;SDS011;20413;50.782;7.152;2022-12-07T04:27:55;52.83;;;25.90;;
27408;SDS011;20413;50.782;7.152;2022-12-07T04:30:20;52.72;;;26.70;;
27408;SDS011;20413;50.782;7.152;2022-12-07T04:32:46;46.28;;;24.75;;
27408;SDS011;20413;50.782;7.152;2022-12-07T04:35:11;46.92;;;26.10;;
27408;SDS011;20413;50.782;7.152;2022-12-07T04:37:37;51.88;;;25.45;;
27408;SDS011;20413;50.782;7.152;2022-12-07T04:40:05;44.30;;;25.90;;
27408;SDS011;20413;50.782;7.152;2022-12-07T04:44:58;51.13;;;26.05;;
27408;SDS011;20413;50.782;7.152;2022-12-07T04:47:23;57.53;;;27.83;;
27408;SDS011;20413;50.782;7.152;2022-12-07T04:49:49;41.40;;;24.80;;
27408;SDS011;20413;50.782;7.152;2022-12-07T04:52:14;45.80;;;25.30;;
27408;SDS011;20413;50.782;7.152;2022-12-07T04:54:40;46.28;;;25.90;;
27408;SDS011;20413;50.782;7.152;2022-12-07T04:57:05;47.30;;;26.20;;
27408;SDS011;20413;50.782;7.152;2022-12-07T04:59:31;50.08;;;26.33;;
27408;SDS011;20413;50.782;7.152;2022-12-07T05:01:57;51.60;;;25.48;;
27408;SDS011;20413;50.782;7.152;2022-12-07T05:04:22;45.33;;;25.52;;
27408;SDS011;20413;50.782;7.152;2022-12-07T05:06:48;46.08;;;24.23;;
27408;SDS011;20413;50.782;7.152;2022-12-07T05:09:13;46.17;;;25.20;;
27408;SDS011;20413;50.782;7.152;2022-12-07T05:11:39;47.70;;;26.13;;
27408;SDS011;20413;50.782;7.152;2022-12-07T05:14:09;46.90;;;25.05;;
27408;SDS011;20413;50.782;7.152;2022-12-07T05:16:40;42.83;;;24.60;;
27408;SDS011;20413;50.782;7.152;2022-12-07T05:19:07;46.03;;;25.30;;
27408;SDS011;20413;50.782;7.152;2022-12-07T05:21:33;44.90;;;24.35;;
27408;SDS011;20413;50.782;7.152;2022-12-07T05:23:59;48.60;;;24.90;;
27408;SDS011;20413;50.782;7.152;2022-12-07T05:26:25;46.05;;;25.63;;
27408;SDS011;20413;50.782;7.152;2022-12-07T05:28:52;42.85;;;24.73;;
27408;SDS011;20413;50.782;7.152;2022-12-07T05:31:19;41.67;;;23.27;;
27408;SDS011;20413;50.782;7.152;2022-12-07T05:33:45;42.05;;;24.88;;
27408;SDS011;20413;50.782;7.152;2022-12-07T05:36:11;47.30;;;25.67;;
27408;SDS011;20413;50.782;7.152;2022-12-07T05:38:37;47.20;;;25.63;;
27408;SDS011;20413;50.782;7.152;2022-12-07T05:41:03;53.97;;;25.50;;
27408;SDS011;20413;50.782;7.152;2022-12-07T05:43:30;49.97;;;25.97;;
27408;SDS011;20413;50.782;7.152;2022-12-07T05:45:56;44.05;;;24.73;;
27408;SDS011;20413;50.782;7.152;2022-12-07T05:48:27;46.20;;;24.60;;
27408;SDS011;20413;50.782;7.152;2022-12-07T05:50:53;50.33;;;25.45;;
27408;SDS011;20413;50.782;7.152;2022-12-07T05:53:19;45.13;;;24.77;;
27408;SDS011;20413;50.782;7.152;2022-12-07T05:55:44;41.90;;;23.92;;
27408;SDS011;20413;50.782;7.152;2022-12-07T05:58:10;41.00;;;23.15;;
27408;SDS011;20413;50.782;7.152;2022-12-07T06:00:55;44.78;;;24.40;;
27408;SDS011;20413;50.782;7.152;2022-12-07T06:03:20;45.47;;;24.20;;
27408;SDS011;20413;50.782;7.152;2022-12-07T06:05:47;45.47;;;23.45;;
27408;SDS011;20413;50.782;7.152;2022-12-07T06:08:13;45.20;;;23.52;;
27408;SDS011;20413;50.782;7.152;2022-12-07T06:10:40;45.55;;;23.83;;
27408;SDS011;20413;50.782;7.152;2022-12-07T06:13:06;45.28;;;23.77;;
27408;SDS011;20413;50.782;7.152;2022-12-07T06:15:33;40.42;;;22.63;;
27408;SDS011;20413;50.782;7.152;2022-12-07T06:18:01;48.15;;;22.85;;
27408;SDS011;20413;50.782;7.152;2022-12-07T06:20:26;46.05;;;24.77;;
27408;SDS011;20413;50.782;7.152;2022-12-07T06:22:52;40.88;;;23.00;;
27408;SDS011;20413;50.782;7.152;2022-12-07T06:25:17;44.33;;;23.05;;
27408;SDS011;20413;50.782;7.152;2022-12-07T06:27:43;43.35;;;23.17;;
27408;SDS011;20413;50.782;7.152;2022-12-07T06:30:09;44.38;;;23.23;;
27408;SDS011;20413;50.782;7.152;2022-12-07T06:32:35;43.45;;;22.30;;
27408;SDS011;20413;50.782;7.152;2022-12-07T06:35:02;39.15;;;22.05;;
27408;SDS011;20413;50.782;7.152;2022-12-07T06:37:28;49.45;;;22.55;;
27408;SDS011;20413;50.782;7.152;2022-12-07T06:39:54;39.47;;;21.35;;
27408;SDS011;20413;50.782;7.152;2022-12-07T06:42:19;39.70;;;21.58;;
27408;SDS011;20413;50.782;7.152;2022-12-07T06:44:45;45.55;;;23.48;;
27408;SDS011;20413;50.782;7.152;2022-12-07T06:47:10;44.63;;;23.00;;
27408;SDS011;20413;50.782;7.152;2022-12-07T06:49:36;44.03;;;23.77;;
27408;SDS011;20413;50.782;7.152;2022-12-07T06:52:02;46.55;;;23.70;;
27408;SDS011;20413;50.782;7.152;2022-12-07T06:54:29;45.97;;;23.27;;
27408;SDS011;20413;50.782;7.152;2022-12-07T06:56:55;42.53;;;22.90;;
27408;SDS011;20413;50.782;7.152;2022-12-07T06:59:20;49.10;;;23.88;;
27408;SDS011;20413;50.782;7.152;2022-12-07T07:01:46;42.42;;;23.45;;
27408;SDS011;20413;50.782;7.152;2022-12-07T07:04:12;47.33;;;23.98;;
27408;SDS011;20413;50.782;7.152;2022-12-07T07:06:37;52.63;;;24.15;;
27408;SDS011;20413;50.782;7.152;2022-12-07T07:09:03;47.92;;;24.67;;
27408;SDS011;20413;50.782;7.152;2022-12-07T07:11:29;45.58;;;23.88;;
27408;SDS011;20413;50.782;7.152;2022-12-07T07:13:54;44.53;;;23.77;;
27408;SDS011;20413;50.782;7.152;2022-12-07T07:16:22;46.50;;;23.38;;
27408;SDS011;20413;50.782;7.152;2022-12-07T07:18:48;44.80;;;23.45;;
27408;SDS011;20413;50.782;7.152;2022-12-07T07:21:14;41.13;;;22.40;;
27408;SDS011;20413;50.782;7.152;2022-12-07T07:23:39;49.53;;;23.98;;
27408;SDS011;20413;50.782;7.152;2022-12-07T07:26:05;52.60;;;24.13;;
27408;SDS011;20413;50.782;7.152;2022-12-07T07:28:31;50.17;;;22.58;;
27408;SDS011;20413;50.782;7.152;2022-12-07T07:30:57;43.85;;;23.25;;
27408;SDS011;20413;50.782;7.152;2022-12-07T07:33:22;41.80;;;22.05;;
27408;SDS011;20413;50.782;7.152;2022-12-07T07:35:48;43.28;;;22.50;;
27408;SDS011;20413;50.782;7.152;2022-12-07T07:38:13;46.55;;;22.45;;
27408;SDS011;20413;50.782;7.152;2022-12-07T07:40:39;42.10;;;22.35;;
27408;SDS011;20413;50.782;7.152;2022-12-07T07:43:04;45.78;;;22.75;;
27408;SDS011;20413;50.782;7.152;2022-12-07T07:45:30;41.05;;;19.83;;
27408;SDS011;20413;50.782;7.152;2022-12-07T07:47:56;33.58;;;20.20;;
27408;SDS011;20413;50.782;7.152;2022-12-07T07:50:22;35.85;;;19.95;;
27408;SDS011;20413;50.782;7.152;2022-12-07T07:52:48;34.55;;;19.25;;
27408;SDS011;20413;50.782;7.152;2022-12-07T07:55:14;37.72;;;20.13;;
27408;SDS011;20413;50.782;7.152;2022-12-07T07:57:40;37.17;;;19.33;;
27408;SDS011;20413;50.782;7.152;2022-12-07T08:00:06;41.08;;;20.00;;
27408;SDS011;20413;50.782;7.152;2022-12-07T08:02:34;36.45;;;19.38;;
27408;SDS011;20413;50.782;7.152;2022-12-07T08:04:59;38.78;;;19.95;;
27408;SDS011;20413;50.782;7.152;2022-12-07T08:07:26;36.53;;;19.73;;
27408;SDS011;20413;50.782;7.152;2022-12-07T08:09:52;37.20;;;19.95;;
27408;SDS011;20413;50.782;7.152;2022-12-07T08:12:18;34.70;;;18.83;;
27408;SDS011;20413;50.782;7.152;2022-12-07T08:14:44;37.97;;;20.05;;
27408;SDS011;20413;50.782;7.152;2022-12-07T08:17:09;40.47;;;21.05;;
27408;SDS011;20413;50.782;7.152;2022-12-07T08:19:35;36.38;;;20.08;;
27408;SDS011;20413;50.782;7.152;2022-12-07T08:22:01;39.95;;;20.55;;
27408;SDS011;20413;50.782;7.152;2022-12-07T08:24:27;36.20;;;20.13;;
27408;SDS011;20413;50.782;7.152;2022-12-07T08:26:52;40.40;;;19.80;;
27408;SDS011;20413;50.782;7.152;2022-12-07T08:29:18;42.45;;;20.15;;
27408;SDS011;20413;50.782;7.152;2022-12-07T08:31:43;36.58;;;19.70;;
27408;SDS011;20413;50.782;7.152;2022-12-07T08:34:12;35.67;;;19.27;;
27408;SDS011;20413;50.782;7.152;2022-12-07T08:36:38;35.15;;;19.98;;
27408;SDS011;20413;50.782;7.152;2022-12-07T08:39:04;45.10;;;21.50;;
27408;SDS011;20413;50.782;7.152;2022-12-07T08:41:30;36.58;;;19.85;;
27408;SDS011;20413;50.782;7.152;2022-12-07T08:43:57;37.60;;;18.60;;
27408;SDS011;20413;50.782;7.152;2022-12-07T08:46:56;36.15;;;19.30;;
27408;SDS011;20413;50.782;7.152;2022-12-07T08:49:25;35.20;;;19.27;;
27408;SDS011;20413;50.782;7.152;2022-12-07T08:52:10;33.72;;;19.58;;
27408;SDS011;20413;50.782;7.152;2022-12-07T08:54:36;32.17;;;18.30;;
27408;SDS011;20413;50.782;7.152;2022-12-07T08:57:04;30.23;;;18.33;;
27408;SDS011;20413;50.782;7.152;2022-12-07T08:59:31;35.85;;;18.90;;
27408;SDS011;20413;50.782;7.152;2022-12-07T09:01:59;35.50;;;18.02;;
27408;SDS011;20413;50.782;7.152;2022-12-07T09:04:25;33.55;;;17.52;;
27408;SDS011;20413;50.782;7.152;2022-12-07T09:06:51;34.40;;;16.83;;
27408;SDS011;20413;50.782;7.152;2022-12-07T09:09:16;33.42;;;17.17;;
27408;SDS011;20413;50.782;7.152;2022-12-07T09:11:42;31.48;;;17.40;;
27408;SDS011;20413;50.782;7.152;2022-12-07T09:14:10;36.60;;;18.30;;
27408;SDS011;20413;50.782;7.152;2022-12-07T09:16:35;33.67;;;16.73;;
27408;SDS011;20413;50.782;7.152;2022-12-07T09:19:01;33.83;;;15.85;;
27408;SDS011;20413;50.782;7.152;2022-12-07T09:21:26;32.33;;;15.95;;
27408;SDS011;20413;50.782;7.152;2022-12-07T09:23:52;30.60;;;15.95;;
27408;SDS011;20413;50.782;7.152;2022-12-07T09:26:17;29.10;;;15.07;;
27408;SDS011;20413;50.782;7.152;2022-12-07T09:28:43;25.73;;;16.08;;
27408;SDS011;20413;50.782;7.152;2022-12-07T09:31:09;25.98;;;15.05;;
27408;SDS011;20413;50.782;7.152;2022-12-07T09:33:34;31.58;;;14.88;;
27408;SDS011;20413;50.782;7.152;2022-12-07T09:36:00;26.77;;;15.90;;
27408;SDS011;20413;50.782;7.152;2022-12-07T09:38:25;26.52;;;15.20;;
27408;SDS011;20413;50.782;7.152;2022-12-07T09:40:51;26.80;;;14.98;;
27408;SDS011;20413;50.782;7.152;2022-12-07T09:43:20;32.10;;;15.07;;
27408;SDS011;20413;50.782;7.152;2022-12-07T09:45:50;31.55;;;15.90;;
27408;SDS011;20413;50.782;7.152;2022-12-07T09:48:34;25.48;;;14.85;;
27408;SDS011;20413;50.782;7.152;2022-12-07T09:51:02;28.65;;;15.85;;
27408;SDS011;20413;50.782;7.152;2022-12-07T09:53:38;33.22;;;17.67;;
27408;SDS011;20413;50.782;7.152;2022-12-07T09:56:04;31.98;;;16.88;;
27408;SDS011;20413;50.782;7.152;2022-12-07T09:58:30;31.42;;;16.73;;
27408;SDS011;20413;50.782;7.152;2022-12-07T10:00:59;28.63;;;15.52;;
27408;SDS011;20413;50.782;7.152;2022-12-07T10:03:55;36.47;;;17.25;;
27408;SDS011;20413;50.782;7.152;2022-12-07T10:06:26;35.28;;;16.05;;
27408;SDS011;20413;50.782;7.152;2022-12-07T10:08:52;29.58;;;15.63;;
27408;SDS011;20413;50.782;7.152;2022-12-07T10:11:18;32.13;;;16.52;;
27408;SDS011;20413;50.782;7.152;2022-12-07T10:13:44;31.05;;;16.63;;
27408;SDS011;20413;50.782;7.152;2022-12-07T10:16:26;32.33;;;17.50;;
27408;SDS011;20413;50.782;7.152;2022-12-07T10:19:20;37.28;;;17.13;;
27408;SDS011;20413;50.782;7.152;2022-12-07T10:22:09;29.63;;;16.17;;
27408;SDS011;20413;50.782;7.152;2022-12-07T10:24:40;30.83;;;15.85;;
27408;SDS011;20413;50.782;7.152;2022-12-07T10:27:18;41.30;;;16.98;;
27408;SDS011;20413;50.782;7.152;2022-12-07T10:29:52;31.27;;;16.08;;
27408;SDS011;20413;50.782;7.152;2022-12-07T10:34:44;31.48;;;16.67;;
27408;SDS011;20413;50.782;7.152;2022-12-07T10:39:45;29.10;;;15.55;;
27408;SDS011;20413;50.782;7.152;2022-12-07T10:42:15;27.17;;;14.63;;
27408;SDS011;20413;50.782;7.152;2022-12-07T10:44:43;28.63;;;14.75;;
27408;SDS011;20413;50.782;7.152;2022-12-07T11:12:05;24.90;;;13.27;;
27408;SDS011;20413;50.782;7.152;2022-12-07T11:14:51;24.20;;;13.18;;
27408;SDS011;20413;50.782;7.152;2022-12-07T11:18:21;25.33;;;11.82;;
27408;SDS011;20413;50.782;7.152;2022-12-07T11:28:34;23.42;;;11.32;;
27408;SDS011;20413;50.782;7.152;2022-12-07T11:31:11;18.70;;;9.55;;
27408;SDS011;20413;50.782;7.152;2022-12-07T11:33:57;23.13;;;10.98;;
27408;SDS011;20413;50.782;7.152;2022-12-07T11:36:37;19.08;;;9.25;;
27408;SDS011;20413;50.782;7.152;2022-12-07T11:39:30;15.70;;;8.73;;
27408;SDS011;20413;50.782;7.152;2022-12-07T11:42:06;14.80;;;7.95;;
27408;SDS011;20413;50.782;7.152;2022-12-07T11:44:39;14.70;;;8.55;;
27408;SDS011;20413;50.782;7.152;2022-12-07T11:47:18;16.50;;;7.22;;
27408;SDS011;20413;50.782;7.152;2022-12-07T11:55:16;19.33;;;6.90;;
27408;SDS011;20413;50.782;7.152;2022-12-07T11:57:53;15.98;;;7.32;;
27408;SDS011;20413;50.782;7.152;2022-12-07T12:00:27;15.82;;;7.18;;
27408;SDS011;20413;50.782;7.152;2022-12-07T12:03:01;17.75;;;6.75;;
27408;SDS011;20413;50.782;7.152;2022-12-07T12:05:40;13.60;;;6.53;;
27408;SDS011;20413;50.782;7.152;2022-12-07T12:08:16;13.90;;;6.50;;
27408;SDS011;20413;50.782;7.152;2022-12-07T12:18:50;11.70;;;4.38;;
27408;SDS011;20413;50.782;7.152;2022-12-07T12:21:20;8.55;;;3.65;;
27408;SDS011;20413;50.782;7.152;2022-12-07T12:24:09;9.13;;;3.88;;
27408;SDS011;20413;50.782;7.152;2022-12-07T12:26:48;13.90;;;5.30;;
27408;SDS011;20413;50.782;7.152;2022-12-07T12:29:28;10.13;;;5.07;;
27408;SDS011;20413;50.782;7.152;2022-12-07T12:34:59;12.95;;;5.13;;
27408;SDS011;20413;50.782;7.152;2022-12-07T12:42:44;17.85;;;6.20;;
27408;SDS011;20413;50.782;7.152;2022-12-07T12:45:25;23.10;;;8.10;;
27408;SDS011;20413;50.782;7.152;2022-12-07T12:50:27;15.25;;;7.00;;
27408;SDS011;20413;50.782;7.152;2022-12-07T12:59:16;21.25;;;8.50;;
27408;SDS011;20413;50.782;7.152;2022-12-07T13:01:46;16.63;;;7.22;;
27408;SDS011;20413;50.782;7.152;2022-12-07T13:04:27;14.30;;;8.60;;
27408;SDS011;20413;50.782;7.152;2022-12-07T13:07:04;15.55;;;6.78;;
27408;SDS011;20413;50.782;7.152;2022-12-07T13:09:35;14.50;;;6.68;;
27408;SDS011;20413;50.782;7.152;2022-12-07T13:12:05;16.83;;;6.10;;
27408;SDS011;20413;50.782;7.152;2022-12-07T13:14:42;18.00;;;5.57;;
27408;SDS011;20413;50.782;7.152;2022-12-07T13:19:57;16.25;;;7.28;;
27408;SDS011;20413;50.782;7.152;2022-12-07T13:24:59;20.58;;;7.10;;
27408;SDS011;20413;50.782;7.152;2022-12-07T13:28:07;15.77;;;6.88;;
27408;SDS011;20413;50.782;7.152;2022-12-07T13:30:43;18.15;;;7.20;;
27408;SDS011;20413;50.782;7.152;2022-12-07T13:33:12;12.45;;;7.50;;
27408;SDS011;20413;50.782;7.152;2022-12-07T13:35:38;18.92;;;8.40;;
27408;SDS011;20413;50.782;7.152;2022-12-07T13:38:04;16.73;;;8.13;;
27408;SDS011;20413;50.782;7.152;2022-12-07T13:43:52;22.83;;;9.55;;
27408;SDS011;20413;50.782;7.152;2022-12-07T13:46:31;19.23;;;8.43;;
27408;SDS011;20413;50.782;7.152;2022-12-07T13:49:14;14.85;;;7.75;;
27408;SDS011;20413;50.782;7.152;2022-12-07T13:51:46;19.63;;;8.10;;
27408;SDS011;20413;50.782;7.152;2022-12-07T13:54:12;19.52;;;9.23;;
27408;SDS011;20413;50.782;7.152;2022-12-07T13:56:38;15.45;;;8.93;;
27408;SDS011;20413;50.782;7.152;2022-12-07T13:59:05;25.77;;;9.07;;
27408;SDS011;20413;50.782;7.152;2022-12-07T14:01:42;18.13;;;9.80;;
27408;SDS011;20413;50.782;7.152;2022-12-07T14:10:00;22.02;;;9.55;;
27408;SDS011;20413;50.782;7.152;2022-12-07T14:12:29;20.25;;;9.20;;
27408;SDS011;20413;50.782;7.152;2022-12-07T14:14:55;18.05;;;8.50;;
27408;SDS011;20413;50.782;7.152;2022-12-07T14:17:22;12.43;;;8.10;;
27408;SDS011;20413;50.782;7.152;2022-12-07T14:22:22;21.52;;;8.63;;
27408;SDS011;20413;50.782;7.152;2022-12-07T14:24:49;16.13;;;9.00;;
27408;SDS011;20413;50.782;7.152;2022-12-07T14:27:20;17.80;;;7.72;;
27408;SDS011;20413;50.782;7.152;2022-12-07T14:29:47;14.23;;;7.45;;
27408;SDS011;20413;50.782;7.152;2022-12-07T14:32:17;12.40;;;7.05;;
27408;SDS011;20413;50.782;7.152;2022-12-07T14:34:58;11.70;;;6.25;;
27408;SDS011;20413;50.782;7.152;2022-12-07T14:37:26;15.05;;;6.13;;
27408;SDS011;20413;50.782;7.152;2022-12-07T14:39:53;9.23;;;5.53;;
27408;SDS011;20413;50.782;7.152;2022-12-07T14:42:18;10.18;;;6.05;;
27408;SDS011;20413;50.782;7.152;2022-12-07T14:44:46;13.93;;;6.30;;
27408;SDS011;20413;50.782;7.152;2022-12-07T14:47:12;14.05;;;6.60;;
27408;SDS011;20413;50.782;7.152;2022-12-07T14:49:37;14.40;;;7.00;;
27408;SDS011;20413;50.782;7.152;2022-12-07T14:52:03;14.30;;;6.35;;
27408;SDS011;20413;50.782;7.152;2022-12-07T14:54:31;13.80;;;6.95;;
27408;SDS011;20413;50.782;7.152;2022-12-07T14:56:57;14.23;;;6.55;;
27408;SDS011;20413;50.782;7.152;2022-12-07T14:59:23;17.02;;;6.65;;
27408;SDS011;20413;50.782;7.152;2022-12-07T15:01:49;11.63;;;6.30;;
27408;SDS011;20413;50.782;7.152;2022-12-07T15:04:15;13.55;;;6.63;;
27408;SDS011;20413;50.782;7.152;2022-12-07T15:06:41;14.63;;;6.47;;
27408;SDS011;20413;50.782;7.152;2022-12-07T15:09:09;12.75;;;6.80;;
27408;SDS011;20413;50.782;7.152;2022-12-07T15:11:36;11.97;;;6.10;;
27408;SDS011;20413;50.782;7.152;2022-12-07T15:14:02;12.02;;;6.63;;
27408;SDS011;20413;50.782;7.152;2022-12-07T15:16:34;8.55;;;5.82;;
27408;SDS011;20413;50.782;7.152;2022-12-07T15:19:01;10.68;;;6.63;;
27408;SDS011;20413;50.782;7.152;2022-12-07T15:21:27;9.63;;;6.22;;
27408;SDS011;20413;50.782;7.152;2022-12-07T15:23:52;18.00;;;7.68;;
27408;SDS011;20413;50.782;7.152;2022-12-07T15:26:18;14.45;;;7.00;;
27408;SDS011;20413;50.782;7.152;2022-12-07T15:28:44;20.20;;;7.70;;
27408;SDS011;20413;50.782;7.152;2022-12-07T15:31:11;14.57;;;7.72;;
27408;SDS011;20413;50.782;7.152;2022-12-07T15:33:37;10.88;;;5.45;;
27408;SDS011;20413;50.782;7.152;2022-12-07T15:36:03;14.52;;;6.97;;
27408;SDS011;20413;50.782;7.152;2022-12-07T15:38:28;16.90;;;7.13;;
27408;SDS011;20413;50.782;7.152;2022-12-07T15:40:58;14.15;;;6.68;;
27408;SDS011;20413;50.782;7.152;2022-12-07T15:43:24;11.25;;;6.70;;
27408;SDS011;20413;50.782;7.152;2022-12-07T15:46:08;17.10;;;7.32;;
27408;SDS011;20413;50.782;7.152;2022-12-07T15:48:33;15.57;;;7.78;;
27408;SDS011;20413;50.782;7.152;2022-12-07T15:51:06;14.00;;;7.28;;
27408;SDS011;20413;50.782;7.152;2022-12-07T15:53:33;13.75;;;6.80;;
27408;SDS011;20413;50.782;7.152;2022-12-07T15:55:59;13.73;;;7.63;;
27408;SDS011;20413;50.782;7.152;2022-12-07T15:58:25;16.58;;;8.38;;
27408;SDS011;20413;50.782;7.152;2022-12-07T16:00:50;20.83;;;8.98;;
27408;SDS011;20413;50.782;7.152;2022-12-07T16:03:16;17.02;;;8.02;;
27408;SDS011;20413;50.782;7.152;2022-12-07T16:05:48;13.65;;;8.07;;
27408;SDS011;20413;50.782;7.152;2022-12-07T16:08:14;19.42;;;8.55;;
27408;SDS011;20413;50.782;7.152;2022-12-07T16:10:39;17.63;;;8.38;;
27408;SDS011;20413;50.782;7.152;2022-12-07T16:13:08;13.75;;;7.88;;
27408;SDS011;20413;50.782;7.152;2022-12-07T16:15:39;19.30;;;8.18;;
27408;SDS011;20413;50.782;7.152;2022-12-07T16:18:05;18.63;;;8.30;;
27408;SDS011;20413;50.782;7.152;2022-12-07T16:20:31;18.27;;;8.68;;
27408;SDS011;20413;50.782;7.152;2022-12-07T16:22:56;18.77;;;9.30;;
27408;SDS011;20413;50.782;7.152;2022-12-07T16:25:22;17.75;;;9.27;;
27408;SDS011;20413;50.782;7.152;2022-12-07T16:27:48;20.55;;;8.93;;
27408;SDS011;20413;50.782;7.152;2022-12-07T16:30:14;17.88;;;8.80;;
27408;SDS011;20413;50.782;7.152;2022-12-07T16:32:41;19.25;;;10.15;;
27408;SDS011;20413;50.782;7.152;2022-12-07T16:35:06;17.73;;;9.00;;
27408;SDS011;20413;50.782;7.152;2022-12-07T16:37:33;15.02;;;9.00;;
27408;SDS011;20413;50.782;7.152;2022-12-07T16:39:58;23.98;;;9.52;;